Time;durP1;ratioP1;P1;durP2;ratioP2;P2;SDS_P1;SDS_P2;PMS_P1;PMS_P2;Temp;Humidity;BMP_temperature;BMP_pressure;BME280_temperature;BME280_humidity;BME280_pressure;Samples;Min_cycle;Max_cycle;Signal;HPM_P1;HPM_P2
2023/03/01 00:01:30;;;;;;;11.85;5.95;;;-4.60;99.90;;;;;;5037227;28;25069;-73
2023/03/01 00:03:59;;;;;;;11.95;5.75;;;-4.70;99.90;;;;;;5037218;28;25087;-73
2023/03/01 00:06:27;;;;;;;11.15;5.43;;;-4.70;99.90;;;;;;5019417;28;25099;-73
2023/03/01 00:08:54;;;;;;;13.75;6.22;;;-4.60;99.90;;;;;;5036527;28;25108;-73
2023/03/01 00:11:27;;;;;;;13.25;6.18;;;-4.70;99.90;;;;;;5037615;28;25159;-73
2023/03/01 00:13:57;;;;;;;13.60;6.05;;;-4.70;99.90;;;;;;5036881;28;25052;-73
2023/03/01 00:16:26;;;;;;;14.77;6.75;;;-4.70;99.90;;;;;;5020189;28;25081;-73
2023/03/01 00:18:55;;;;;;;13.95;6.43;;;-4.70;99.90;;;;;;5036727;28;25112;-73
2023/03/01 00:21:23;;;;;;;15.32;6.13;;;-4.70;99.90;;;;;;5019099;28;25150;-73
2023/03/01 00:23:51;;;;;;;12.80;6.50;;;-4.70;99.90;;;;;;5036676;28;25054;-73
2023/03/01 00:26:20;;;;;;;15.57;6.22;;;-4.70;99.90;;;;;;5018613;28;25064;-73
2023/03/01 00:28:48;;;;;;;12.57;6.00;;;-4.70;99.90;;;;;;5036779;28;25081;-73
2023/03/01 00:31:18;;;;;;;14.68;6.65;;;-4.70;99.90;;;;;;5036802;28;25057;-73
2023/03/01 00:33:45;;;;;;;11.57;5.75;;;-4.80;99.90;;;;;;5036487;28;25059;-73
2023/03/01 00:36:14;;;;;;;11.82;6.18;;;-4.80;99.90;;;;;;5018960;28;25126;-73
2023/03/01 00:38:43;;;;;;;11.70;5.90;;;-4.80;99.90;;;;;;5036465;28;25112;-73
2023/03/01 00:41:15;;;;;;;13.45;6.25;;;-4.90;99.90;;;;;;5036295;28;25071;-73
2023/03/01 00:43:43;;;;;;;15.57;6.57;;;-4.90;99.90;;;;;;5018835;28;25133;-73
2023/03/01 00:46:13;;;;;;;12.60;5.95;;;-4.90;99.90;;;;;;5036644;28;25080;-73
2023/03/01 00:48:41;;;;;;;10.93;5.95;;;-4.90;99.90;;;;;;5036800;28;25101;-73
2023/03/01 00:51:17;;;;;;;11.25;6.32;;;-4.90;99.90;;;;;;5036297;28;25079;-73
2023/03/01 00:53:45;;;;;;;11.52;5.63;;;-5.00;99.90;;;;;;5018956;28;25083;-73
2023/03/01 00:56:14;;;;;;;14.55;6.28;;;-4.90;99.90;;;;;;5018844;28;25110;-72
2023/03/01 00:58:42;;;;;;;14.73;6.65;;;-4.90;99.90;;;;;;5018733;28;25103;-73
2023/03/01 01:01:17;;;;;;;29.38;8.32;;;-4.90;99.90;;;;;;5018588;28;25075;-72
2023/03/01 01:04:01;;;;;;;13.02;6.60;;;-4.90;99.90;;;;;;5036337;28;25076;-73
2023/03/01 01:06:31;;;;;;;15.52;6.55;;;-4.90;99.90;;;;;;5036203;28;25058;-72
2023/03/01 01:08:59;;;;;;;12.88;6.70;;;-4.90;99.90;;;;;;5036210;28;25115;-73
2023/03/01 01:11:29;;;;;;;12.98;6.00;;;-4.90;99.90;;;;;;5018626;28;25061;-72
2023/03/01 01:13:57;;;;;;;14.68;6.60;;;-5.00;99.90;;;;;;5036278;28;25071;-73
2023/03/01 01:16:26;;;;;;;14.00;5.57;;;-5.00;99.90;;;;;;5036598;28;25054;-73
2023/03/01 01:18:54;;;;;;;13.38;6.85;;;-5.00;99.90;;;;;;5036004;28;25074;-72
2023/03/01 01:21:23;;;;;;;14.27;5.88;;;-5.00;99.90;;;;;;5035947;28;25073;-73
2023/03/01 01:23:51;;;;;;;13.90;6.30;;;-5.10;99.90;;;;;;5036230;28;25141;-72
2023/03/01 01:26:21;;;;;;;13.00;5.25;;;-5.10;99.90;;;;;;5036012;28;25066;-72
2023/03/01 01:28:49;;;;;;;18.45;6.38;;;-5.10;99.90;;;;;;5036015;28;25127;-73
2023/03/01 01:31:17;;;;;;;12.35;6.15;;;-5.10;99.90;;;;;;5035937;28;25104;-73
2023/03/01 01:33:45;;;;;;;10.68;5.93;;;-5.10;99.90;;;;;;5036073;28;25149;-72
2023/03/01 01:36:13;;;;;;;13.43;6.43;;;-5.10;99.90;;;;;;5018417;28;25089;-72
2023/03/01 01:38:42;;;;;;;10.30;4.97;;;-5.10;99.90;;;;;;5037297;28;25097;-72
2023/03/01 01:41:11;;;;;;;11.93;6.38;;;-5.10;99.90;;;;;;5039538;28;25060;-72
2023/03/01 01:43:45;;;;;;;16.23;6.70;;;-5.10;99.90;;;;;;5022193;28;25104;-72
2023/03/01 01:46:30;;;;;;;14.18;6.00;;;-5.20;99.90;;;;;;5039581;28;25116;-72
2023/03/01 01:49:15;;;;;;;11.82;4.95;;;-5.20;99.90;;;;;;5039440;28;25051;-72
2023/03/01 01:51:48;;;;;;;10.07;5.30;;;-5.20;99.90;;;;;;5040020;28;25074;-72
2023/03/01 01:54:28;;;;;;;12.63;6.00;;;-5.20;99.90;;;;;;5039436;28;25101;-72
2023/03/01 01:57:03;;;;;;;11.55;5.78;;;-5.30;99.90;;;;;;5039330;28;25098;-72
2023/03/01 01:59:33;;;;;;;10.43;5.63;;;-5.30;99.90;;;;;;5039254;28;25082;-72
2023/03/01 02:02:03;;;;;;;10.77;5.22;;;-5.30;99.90;;;;;;5039256;28;25065;-72
2023/03/01 02:04:32;;;;;;;24.10;8.13;;;-5.30;99.90;;;;;;5039367;28;25073;-72
2023/03/01 02:07:15;;;;;;;41.45;10.65;;;-5.30;99.90;;;;;;5039198;28;25069;-72
2023/03/01 02:09:50;;;;;;;65.10;13.80;;;-5.30;99.90;;;;;;5039328;28;25065;-72
2023/03/01 02:12:20;;;;;;;104.45;22.45;;;-5.30;99.90;;;;;;5039639;28;25113;-72
2023/03/01 02:14:48;;;;;;;63.38;16.70;;;-5.40;99.90;;;;;;5039622;28;25125;-72
2023/03/01 02:17:18;;;;;;;51.13;14.70;;;-5.30;99.90;;;;;;5039568;28;25080;-72
2023/03/01 02:20:16;;;;;;;49.67;14.43;;;-5.30;99.90;;;;;;5021237;28;25065;-72
2023/03/01 02:22:46;;;;;;;27.40;9.05;;;-5.40;99.90;;;;;;5039042;28;25104;-72
2023/03/01 02:25:32;;;;;;;35.38;10.63;;;-5.40;99.90;;;;;;5039410;28;25057;-72
2023/03/01 02:28:12;;;;;;;20.73;8.30;;;-5.40;99.90;;;;;;5039133;28;25127;-72
2023/03/01 02:31:41;;;;;;;14.98;5.88;;;-5.40;99.90;;;;;;5038646;28;25067;-72
2023/03/01 02:33:28;;;;;;;12.07;5.25;;;-5.50;99.90;;;;;;5038456;28;25079;-72
2023/03/01 02:35:56;;;;;;;20.77;7.07;;;-5.50;99.90;;;;;;5038896;28;25102;-72
2023/03/01 02:38:24;;;;;;;27.10;8.65;;;-5.50;99.90;;;;;;5038585;28;25123;-72
2023/03/01 02:40:53;;;;;;;17.10;6.28;;;-5.50;99.90;;;;;;5038564;28;25115;-72
2023/03/01 02:43:25;;;;;;;11.35;5.68;;;-5.50;99.90;;;;;;5038683;28;25096;-72
2023/03/01 02:45:53;;;;;;;12.23;5.45;;;-5.50;99.90;;;;;;5020845;28;25102;-72
2023/03/01 02:48:20;;;;;;;12.82;6.22;;;-5.50;99.90;;;;;;5038431;28;25091;-72
2023/03/01 02:51:03;;;;;;;12.88;6.25;;;-5.60;99.90;;;;;;5038482;28;25144;-72
2023/03/01 02:53:43;;;;;;;14.75;6.20;;;-5.60;99.90;;;;;;5020958;28;25074;-72
2023/03/01 02:56:12;;;;;;;11.32;5.03;;;-5.60;99.90;;;;;;5038231;28;25098;-72
2023/03/01 02:58:51;;;;;;;10.15;5.85;;;-5.60;99.90;;;;;;5038202;28;25076;-72
2023/03/01 03:01:20;;;;;;;14.07;6.90;;;-5.60;99.90;;;;;;5038102;28;25077;-72
2023/03/01 03:03:47;;;;;;;9.82;4.40;;;-5.60;99.90;;;;;;5038259;28;25055;-72
2023/03/01 03:06:14;;;;;;;10.98;5.35;;;-5.60;99.90;;;;;;5038031;28;25080;-72
2023/03/01 03:08:41;;;;;;;12.10;5.20;;;-5.60;99.90;;;;;;5020476;28;25057;-72
2023/03/01 03:11:09;;;;;;;12.25;5.18;;;-5.70;99.90;;;;;;5020422;28;25085;-72
2023/03/01 03:13:36;;;;;;;10.35;5.20;;;-5.70;99.90;;;;;;5038673;28;25112;-72
2023/03/01 03:16:04;;;;;;;11.93;5.57;;;-5.70;99.90;;;;;;5037972;28;25088;-72
2023/03/01 03:18:32;;;;;;;11.23;5.65;;;-5.70;99.90;;;;;;5037812;28;25121;-72
2023/03/01 03:20:59;;;;;;;8.93;4.97;;;-5.80;99.90;;;;;;5038291;28;25071;-72
2023/03/01 03:23:26;;;;;;;15.43;6.45;;;-5.80;99.90;;;;;;5038310;28;25085;-72
2023/03/01 03:25:53;;;;;;;13.50;4.80;;;-5.80;99.90;;;;;;5038245;28;25106;-72
2023/03/01 03:28:20;;;;;;;11.02;4.82;;;-5.80;99.90;;;;;;5038197;28;25063;-72
2023/03/01 03:30:47;;;;;;;12.30;4.82;;;-5.80;99.90;;;;;;5038143;28;25116;-72
2023/03/01 03:33:15;;;;;;;11.55;5.43;;;-5.80;99.90;;;;;;5038004;28;25069;-72
2023/03/01 03:35:45;;;;;;;10.50;5.25;;;-5.80;99.90;;;;;;5037522;28;25112;-72
2023/03/01 03:38:17;;;;;;;10.45;4.90;;;-5.90;99.90;;;;;;5038042;28;25073;-72
2023/03/01 03:40:47;;;;;;;12.50;5.10;;;-5.90;99.90;;;;;;5037283;28;25067;-72
2023/03/01 03:43:21;;;;;;;12.40;5.03;;;-5.90;99.90;;;;;;5037570;28;25073;-72
2023/03/01 03:45:49;;;;;;;9.15;4.30;;;-5.90;99.90;;;;;;5037895;28;25094;-72
2023/03/01 03:48:17;;;;;;;10.75;4.82;;;-5.90;99.90;;;;;;5037217;28;25096;-72
2023/03/01 03:50:51;;;;;;;11.68;5.03;;;-6.00;99.90;;;;;;5036160;28;25125;-72
2023/03/01 03:53:19;;;;;;;10.77;5.05;;;-5.90;99.90;;;;;;5019804;28;25068;-72
2023/03/01 03:55:49;;;;;;;13.45;5.13;;;-6.00;99.90;;;;;;5037161;28;25139;-72
2023/03/01 03:58:19;;;;;;;14.93;5.00;;;-6.00;99.90;;;;;;5037038;28;25062;-72
2023/03/01 04:00:49;;;;;;;8.80;4.60;;;-6.00;99.90;;;;;;5036876;28;25064;-72
2023/03/01 04:03:18;;;;;;;15.70;5.32;;;-6.00;99.90;;;;;;5037095;28;25105;-72
2023/03/01 04:05:46;;;;;;;8.73;4.57;;;-6.00;99.90;;;;;;5020151;28;25066;-72
2023/03/01 04:08:13;;;;;;;13.30;6.07;;;-6.00;99.90;;;;;;5019367;28;25119;-72
2023/03/01 04:10:44;;;;;;;11.20;5.78;;;-6.00;99.90;;;;;;5037080;28;25112;-72
2023/03/01 04:13:14;;;;;;;10.65;5.22;;;-6.00;99.90;;;;;;5037044;28;25059;-72
2023/03/01 04:15:42;;;;;;;10.05;4.93;;;-6.00;99.90;;;;;;5037359;28;25099;-72
2023/03/01 04:18:14;;;;;;;11.73;5.40;;;-6.00;99.90;;;;;;5037132;28;25328;-72
2023/03/01 04:20:44;;;;;;;12.85;4.82;;;-6.00;99.90;;;;;;5037281;28;25082;-72
2023/03/01 04:23:21;;;;;;;11.32;4.88;;;-6.00;99.90;;;;;;5036892;28;25124;-72
2023/03/01 04:25:56;;;;;;;10.20;4.60;;;-6.00;99.90;;;;;;5019103;28;25078;-71
2023/03/01 04:28:28;;;;;;;10.68;4.55;;;-6.00;99.90;;;;;;5036680;28;25068;-71
2023/03/01 04:30:57;;;;;;;8.07;4.22;;;-6.10;99.90;;;;;;5036769;28;25081;-71
2023/03/01 04:33:25;;;;;;;14.00;5.90;;;-6.10;99.90;;;;;;5036627;28;25057;-71
2023/03/01 04:35:53;;;;;;;9.65;5.13;;;-6.10;99.90;;;;;;5036499;28;25079;-71
2023/03/01 04:38:21;;;;;;;9.32;4.43;;;-6.10;99.90;;;;;;5037099;28;25098;-71
2023/03/01 04:40:48;;;;;;;11.38;4.43;;;-6.10;99.90;;;;;;5038389;28;25097;-71
2023/03/01 04:43:15;;;;;;;13.05;5.13;;;-6.20;99.90;;;;;;5036958;28;25083;-71
2023/03/01 04:45:42;;;;;;;12.02;5.05;;;-6.20;99.90;;;;;;5036637;28;25079;-71
2023/03/01 04:48:09;;;;;;;11.13;4.72;;;-6.20;99.90;;;;;;5018779;28;25124;-71
2023/03/01 04:50:36;;;;;;;13.05;5.82;;;-6.20;99.90;;;;;;5036529;28;25158;-72
2023/03/01 04:53:03;;;;;;;13.05;4.95;;;-6.20;99.90;;;;;;5036682;28;25133;-72
2023/03/01 04:55:31;;;;;;;10.80;4.60;;;-6.10;99.90;;;;;;5018712;28;25070;-71
2023/03/01 04:57:58;;;;;;;9.70;4.85;;;-6.20;99.90;;;;;;5036475;28;25047;-72
2023/03/01 05:00:26;;;;;;;12.65;5.85;;;-6.20;99.90;;;;;;5036778;28;25106;-71
2023/03/01 05:03:02;;;;;;;10.38;5.13;;;-6.10;99.90;;;;;;5018645;28;25150;-71
2023/03/01 05:05:34;;;;;;;13.52;4.97;;;-6.20;99.90;;;;;;5036194;28;25113;-71
2023/03/01 05:08:04;;;;;;;14.00;5.47;;;-6.20;99.90;;;;;;5036609;28;25111;-71
2023/03/01 05:10:35;;;;;;;14.05;7.00;;;-6.20;99.90;;;;;;5036328;28;25085;-71
2023/03/01 05:13:03;;;;;;;9.93;4.93;;;-6.20;99.90;;;;;;5038220;28;25075;-71
2023/03/01 05:15:31;;;;;;;18.25;6.63;;;-6.20;99.90;;;;;;5040123;28;25095;-71
2023/03/01 05:18:00;;;;;;;14.90;6.28;;;-6.20;99.90;;;;;;5040755;28;25047;-71
2023/03/01 05:20:29;;;;;;;14.02;6.00;;;-6.20;99.90;;;;;;5022484;28;25070;-72
2023/03/01 05:23:04;;;;;;;12.85;5.63;;;-6.30;99.90;;;;;;5040055;28;25062;-72
2023/03/01 05:25:34;;;;;;;17.50;6.00;;;-6.30;99.90;;;;;;5023132;28;25143;-71
2023/03/01 05:28:04;;;;;;;11.45;5.78;;;-6.40;99.90;;;;;;5040150;28;25122;-71
2023/03/01 05:30:33;;;;;;;11.30;5.63;;;-6.30;99.90;;;;;;5022212;28;25058;-71
2023/03/01 05:33:00;;;;;;;10.45;4.75;;;-6.40;99.90;;;;;;5040317;28;25096;-71
2023/03/01 05:35:29;;;;;;;9.30;5.13;;;-6.40;99.90;;;;;;5040353;28;25088;-71
2023/03/01 05:37:56;;;;;;;13.48;5.05;;;-6.40;99.90;;;;;;5039852;28;25065;-72
2023/03/01 05:40:24;;;;;;;12.00;5.43;;;-6.40;99.90;;;;;;5039924;28;25072;-71
2023/03/01 05:42:54;;;;;;;12.35;5.70;;;-6.40;99.90;;;;;;5022380;28;25078;-71
2023/03/01 05:45:24;;;;;;;10.82;4.88;;;-6.40;99.90;;;;;;5022059;28;25060;-71
2023/03/01 05:47:51;;;;;;;10.27;5.20;;;-6.30;99.90;;;;;;5039538;28;25079;-71
2023/03/01 05:50:21;;;;;;;11.25;5.75;;;-6.40;99.90;;;;;;5039956;28;25059;-71
2023/03/01 05:52:51;;;;;;;13.98;5.65;;;-6.40;99.90;;;;;;5039469;28;25072;-71
2023/03/01 05:55:21;;;;;;;13.27;6.00;;;-6.40;99.90;;;;;;5039984;28;25122;-71
2023/03/01 05:57:49;;;;;;;8.75;4.85;;;-6.40;99.90;;;;;;5039368;28;25073;-71
2023/03/01 06:00:19;;;;;;;12.75;5.13;;;-6.40;99.90;;;;;;5039212;28;25062;-71
2023/03/01 06:02:46;;;;;;;13.75;5.97;;;-6.40;99.90;;;;;;5039202;28;25121;-71
2023/03/01 06:05:15;;;;;;;13.05;5.72;;;-6.40;99.90;;;;;;5021605;28;25155;-71
2023/03/01 06:07:43;;;;;;;12.90;5.70;;;-6.40;99.90;;;;;;5021613;28;25082;-71
2023/03/01 06:10:12;;;;;;;14.18;6.40;;;-6.50;99.90;;;;;;5039052;28;25102;-71
2023/03/01 06:12:43;;;;;;;14.23;5.88;;;-6.40;99.90;;;;;;5039236;28;25108;-71
2023/03/01 06:15:12;;;;;;;9.82;5.30;;;-6.40;99.90;;;;;;5039324;28;25074;-71
2023/03/01 06:17:41;;;;;;;13.00;5.60;;;-6.40;99.90;;;;;;5039478;28;25049;-71
2023/03/01 06:20:11;;;;;;;10.07;5.32;;;-6.40;99.90;;;;;;5039453;28;25069;-71
2023/03/01 06:22:39;;;;;;;12.93;5.75;;;-6.40;99.90;;;;;;5039091;28;25075;-71
2023/03/01 06:25:07;;;;;;;12.23;4.75;;;-6.40;99.90;;;;;;5038552;28;25155;-71
2023/03/01 06:27:34;;;;;;;8.73;4.63;;;-6.40;99.90;;;;;;5038836;28;25064;-72
2023/03/01 06:30:02;;;;;;;9.77;4.82;;;-6.40;99.90;;;;;;5039249;28;25062;-71
2023/03/01 06:32:31;;;;;;;10.50;4.43;;;-6.40;99.90;;;;;;5021253;28;25051;-71
2023/03/01 06:34:59;;;;;;;10.27;5.10;;;-6.40;99.90;;;;;;5038693;28;25132;-71
2023/03/01 06:37:26;;;;;;;12.57;5.53;;;-6.40;99.90;;;;;;5038639;28;25106;-71
2023/03/01 06:39:54;;;;;;;10.38;5.18;;;-6.40;99.90;;;;;;5038949;28;25081;-71
2023/03/01 06:42:21;;;;;;;13.88;5.85;;;-6.40;99.90;;;;;;5038642;28;25068;-71
2023/03/01 06:44:48;;;;;;;16.70;5.55;;;-6.40;99.90;;;;;;5038492;28;25092;-71
2023/03/01 06:47:16;;;;;;;11.10;5.22;;;-6.40;99.90;;;;;;5020879;28;25109;-71
2023/03/01 06:49:44;;;;;;;16.77;6.15;;;-6.30;99.90;;;;;;5038188;28;25107;-71
2023/03/01 06:52:11;;;;;;;16.83;6.22;;;-6.30;99.90;;;;;;5039091;28;25107;-71
2023/03/01 06:54:38;;;;;;;9.38;5.35;;;-6.30;99.90;;;;;;5038444;28;25137;-71
2023/03/01 06:57:05;;;;;;;12.48;5.72;;;-6.20;99.90;;;;;;5038725;28;25134;-71
2023/03/01 06:59:33;;;;;;;13.10;7.13;;;-6.20;99.90;;;;;;5038224;28;25121;-71
2023/03/01 07:02:01;;;;;;;10.75;5.75;;;-6.10;99.90;;;;;;5020515;28;25109;-72
2023/03/01 07:04:30;;;;;;;13.27;6.00;;;-6.10;99.90;;;;;;5038238;28;25064;-71
2023/03/01 07:06:57;;;;;;;13.98;6.28;;;-6.00;99.90;;;;;;5038047;28;25094;-70
2023/03/01 07:09:25;;;;;;;10.05;4.97;;;-6.00;99.90;;;;;;5038594;28;25062;-70
2023/03/01 07:11:52;;;;;;;13.18;5.68;;;-6.00;99.90;;;;;;5037941;28;25062;-70
2023/03/01 07:14:19;;;;;;;12.45;5.65;;;-5.90;99.90;;;;;;5038555;28;25124;-73
2023/03/01 07:16:47;;;;;;;11.45;5.55;;;-5.90;99.90;;;;;;5038133;28;25057;-72
2023/03/01 07:19:15;;;;;;;10.68;5.05;;;-5.90;99.90;;;;;;5037924;28;25056;-74
2023/03/01 07:21:42;;;;;;;12.80;5.50;;;-5.90;99.90;;;;;;5040437;28;25072;-76
2023/03/01 07:24:10;;;;;;;12.55;6.57;;;-5.80;99.90;;;;;;5020342;28;25110;-74
2023/03/01 07:26:38;;;;;;;11.73;6.20;;;-5.80;99.90;;;;;;5037654;28;25098;-73
2023/03/01 07:29:07;;;;;;;13.70;5.97;;;-5.70;99.90;;;;;;5038426;28;25066;-72
2023/03/01 07:31:34;;;;;;;16.17;6.35;;;-5.60;99.90;;;;;;5019928;28;25056;-72
2023/03/01 07:34:01;;;;;;;13.48;7.18;;;-5.60;99.90;;;;;;5019995;28;25050;-72
2023/03/01 07:36:29;;;;;;;18.65;7.32;;;-5.50;99.90;;;;;;5037504;28;25092;-73
2023/03/01 07:38:57;;;;;;;17.63;6.88;;;-5.40;99.90;;;;;;5020078;28;25095;-72
2023/03/01 07:41:25;;;;;;;14.88;7.00;;;-5.40;99.90;;;;;;5037415;28;25101;-72
2023/03/01 07:43:52;;;;;;;14.98;6.18;;;-5.30;99.90;;;;;;5019903;28;25109;-72
2023/03/01 07:46:20;;;;;;;15.68;7.53;;;-5.20;99.90;;;;;;5037910;28;25101;-72
2023/03/01 07:48:48;;;;;;;13.25;6.25;;;-5.20;99.90;;;;;;5037627;28;25107;-68
2023/03/01 07:51:16;;;;;;;14.40;7.18;;;-5.10;99.90;;;;;;5019663;28;25065;-72
2023/03/01 07:53:47;;;;;;;14.60;6.75;;;-5.00;99.90;;;;;;5037277;28;25119;-68
2023/03/01 07:56:18;;;;;;;15.40;7.10;;;-5.00;99.90;;;;;;5037091;28;25052;-69
2023/03/01 07:58:46;;;;;;;16.88;8.05;;;-4.90;99.90;;;;;;5037337;28;25062;-68
2023/03/01 08:01:16;;;;;;;14.82;7.75;;;-4.80;99.90;;;;;;5019538;28;25069;-68
2023/03/01 08:03:44;;;;;;;18.08;8.18;;;-4.80;99.90;;;;;;5037248;28;25103;-69
2023/03/01 08:06:12;;;;;;;16.02;7.72;;;-4.70;99.90;;;;;;5036956;28;25068;-70
2023/03/01 08:08:40;;;;;;;22.08;8.73;;;-4.60;99.90;;;;;;5019558;28;25102;-68
2023/03/01 08:11:10;;;;;;;25.38;9.35;;;-4.50;99.90;;;;;;5037371;28;25070;-69
2023/03/01 08:13:38;;;;;;;17.85;8.43;;;-4.40;99.90;;;;;;5036736;28;25072;-69
2023/03/01 08:16:07;;;;;;;18.20;8.75;;;-4.40;99.90;;;;;;5037058;28;25110;-70
2023/03/01 08:18:35;;;;;;;18.38;8.25;;;-4.30;99.90;;;;;;5037318;28;25053;-67
2023/03/01 08:21:06;;;;;;;23.48;9.20;;;-4.20;99.90;;;;;;5019172;28;25091;-68
2023/03/01 08:23:34;;;;;;;20.23;8.10;;;-4.10;99.90;;;;;;5036873;28;25115;-68
2023/03/01 08:26:28;;;;;;;17.85;8.52;;;-4.00;99.90;;;;;;5019136;28;25064;-68
2023/03/01 08:28:57;;;;;;;18.02;8.30;;;-3.90;99.90;;;;;;5035005;28;25071;-68
2023/03/01 08:31:32;;;;;;;17.58;7.40;;;-3.80;99.90;;;;;;5036477;28;25129;-68
2023/03/01 08:34:02;;;;;;;15.82;7.40;;;-3.70;99.90;;;;;;5036561;28;25072;-69
2023/03/01 08:36:39;;;;;;;13.38;7.20;;;-3.60;99.90;;;;;;5019007;28;25056;-68
2023/03/01 08:39:07;;;;;;;13.07;7.15;;;-3.60;99.90;;;;;;5037005;28;25055;-68
2023/03/01 08:41:35;;;;;;;19.08;9.32;;;-3.50;99.90;;;;;;5036533;28;25108;-69
2023/03/01 08:44:03;;;;;;;13.23;6.05;;;-3.40;99.90;;;;;;5018877;28;25103;-68
2023/03/01 08:46:33;;;;;;;24.02;9.25;;;-3.20;99.90;;;;;;5036446;28;25065;-68
2023/03/01 08:49:05;;;;;;;18.55;9.13;;;-3.10;99.90;;;;;;5036429;28;25065;-68
2023/03/01 08:51:36;;;;;;;15.55;7.15;;;-3.00;99.90;;;;;;5036212;28;25068;-68
2023/03/01 08:54:17;;;;;;;14.60;7.47;;;-2.80;99.90;;;;;;5018661;28;25119;-68
2023/03/01 08:56:45;;;;;;;14.70;7.38;;;-2.70;99.90;;;;;;5036424;28;25104;-68
2023/03/01 08:59:14;;;;;;;14.25;7.50;;;-2.50;99.90;;;;;;5035149;28;25046;-68
2023/03/01 09:01:45;;;;;;;16.30;7.30;;;-2.30;99.90;;;;;;5036304;28;25076;-68
2023/03/01 09:04:14;;;;;;;14.05;7.10;;;-2.20;99.90;;;;;;5019645;28;25075;-68
2023/03/01 09:06:42;;;;;;;12.98;6.93;;;-2.00;99.90;;;;;;5036232;28;25138;-68
2023/03/01 09:09:16;;;;;;;14.35;7.53;;;-1.90;99.90;;;;;;5018503;28;25051;-68
2023/03/01 09:11:45;;;;;;;15.40;7.15;;;-1.80;99.90;;;;;;5035966;28;25414;-68
2023/03/01 09:14:14;;;;;;;15.18;7.22;;;-1.70;99.90;;;;;;5036557;28;25120;-68
2023/03/01 09:16:41;;;;;;;13.95;6.57;;;-1.60;99.90;;;;;;5036651;28;25060;-68
2023/03/01 09:19:08;;;;;;;15.60;6.28;;;-1.50;99.90;;;;;;5035940;28;25090;-68
2023/03/01 09:21:35;;;;;;;11.77;6.97;;;-1.30;99.90;;;;;;5018874;28;25081;-68
2023/03/01 09:24:03;;;;;;;13.80;6.70;;;-1.20;99.90;;;;;;5018449;28;25068;-68
2023/03/01 09:26:30;;;;;;;15.68;6.95;;;-1.20;99.90;;;;;;5035866;28;25066;-68
2023/03/01 09:28:59;;;;;;;14.48;6.70;;;-1.10;99.90;;;;;;5036136;28;25048;-69
2023/03/01 09:31:26;;;;;;;16.17;7.25;;;-1.00;99.90;;;;;;5035868;28;25060;-69
2023/03/01 09:33:54;;;;;;;14.43;7.32;;;-0.90;99.90;;;;;;5018322;28;25068;-70
2023/03/01 09:36:25;;;;;;;14.10;6.75;;;-0.90;99.90;;;;;;5036502;28;25095;-69
2023/03/01 09:38:53;;;;;;;14.10;6.85;;;-0.80;99.90;;;;;;5036693;28;25113;-69
2023/03/01 09:41:54;;;;;;;12.20;7.22;;;-0.70;99.90;;;;;;5035854;28;25079;-69
2023/03/01 09:44:46;;;;;;;12.82;6.47;;;-0.60;99.90;;;;;;5036453;28;25101;-69
2023/03/01 09:47:31;;;;;;;13.90;6.85;;;-0.60;99.90;;;;;;5035966;28;25100;-69
2023/03/01 09:50:07;;;;;;;17.25;6.47;;;-0.50;99.90;;;;;;5036215;28;25057;-71
2023/03/01 09:52:48;;;;;;;15.70;6.43;;;-0.40;99.90;;;;;;5036082;28;25059;-71
2023/03/01 09:55:34;;;;;;;13.30;6.63;;;-0.30;99.90;;;;;;5036318;28;25093;-69
2023/03/01 09:58:28;;;;;;;10.63;5.40;;;-0.20;99.90;;;;;;5035927;28;25073;-69
2023/03/01 10:01:01;;;;;;;12.10;5.72;;;-0.20;99.90;;;;;;5023463;28;25104;-70
2023/03/01 10:03:35;;;;;;;9.10;5.63;;;-0.20;99.90;;;;;;5039234;28;25061;-69
2023/03/01 10:06:20;;;;;;;13.02;5.55;;;-0.10;99.90;;;;;;5039781;28;25069;-68
2023/03/01 10:08:51;;;;;;;15.52;5.10;;;0.00;99.90;;;;;;5039732;28;25130;-69
2023/03/01 10:11:29;;;;;;;14.70;5.43;;;0.10;99.90;;;;;;5039620;28;25056;-68
2023/03/01 10:14:08;;;;;;;12.18;5.00;;;0.10;99.90;;;;;;5039683;28;25094;-69
2023/03/01 10:17:02;;;;;;;9.05;4.32;;;0.20;99.90;;;;;;5039791;28;25055;-68
2023/03/01 10:19:40;;;;;;;10.20;4.25;;;0.30;99.90;;;;;;5038856;28;25114;-68
2023/03/01 10:22:29;;;;;;;10.35;3.67;;;0.50;99.90;;;;;;5038975;28;25065;-68
2023/03/01 10:25:03;;;;;;;6.55;2.90;;;0.60;99.90;;;;;;5021346;28;25069;-68
2023/03/01 10:27:42;;;;;;;8.30;3.90;;;0.70;99.90;;;;;;5039274;28;25077;-68
2023/03/01 10:30:42;;;;;;;11.43;4.03;;;0.90;99.90;;;;;;5039311;28;25071;-69
2023/03/01 10:33:27;;;;;;;12.65;3.92;;;1.00;99.90;;;;;;5021157;28;25066;-69
2023/03/01 10:35:54;;;;;;;7.15;3.03;;;1.20;99.90;;;;;;5038698;28;25060;-68
2023/03/01 10:38:22;;;;;;;8.45;3.55;;;1.20;99.90;;;;;;5021266;28;25075;-69
2023/03/01 10:40:58;;;;;;;7.40;3.05;;;1.30;99.90;;;;;;5038770;28;25070;-69
2023/03/01 10:43:48;;;;;;;9.63;3.88;;;1.40;99.90;;;;;;5021032;28;25144;-68
2023/03/01 10:46:33;;;;;;;7.20;3.70;;;1.50;99.90;;;;;;5038313;28;25054;-69
2023/03/01 10:49:17;;;;;;;6.95;3.70;;;1.60;99.90;;;;;;5038586;28;25061;-69
2023/03/01 10:51:46;;;;;;;7.88;3.58;;;1.60;99.90;;;;;;5020824;28;25096;-69
2023/03/01 10:54:33;;;;;;;7.22;3.70;;;1.70;99.90;;;;;;5037813;28;25142;-69
2023/03/01 10:57:03;;;;;;;10.05;3.55;;;1.80;99.90;;;;;;5038960;28;25135;-69
2023/03/01 10:59:36;;;;;;;8.25;4.03;;;1.80;99.90;;;;;;5039066;28;25087;-68
2023/03/01 11:02:33;;;;;;;10.38;4.55;;;1.90;99.90;;;;;;5038145;28;25058;-69
2023/03/01 11:05:08;;;;;;;13.15;4.75;;;1.90;99.90;;;;;;5038191;28;25073;-70
2023/03/01 11:07:54;;;;;;;9.60;4.45;;;2.00;99.90;;;;;;5038803;28;24898;-70
2023/03/01 11:10:36;;;;;;;9.60;4.05;;;2.00;99.90;;;;;;5037619;28;25066;-69
2023/03/01 11:13:19;;;;;;;8.80;3.75;;;2.10;99.90;;;;;;5037938;28;25053;-69
2023/03/01 11:16:07;;;;;;;7.45;3.58;;;2.10;99.90;;;;;;5038486;28;25070;-70
2023/03/01 11:18:35;;;;;;;8.73;3.70;;;2.20;99.90;;;;;;5038001;28;25082;-69
2023/03/01 11:21:04;;;;;;;7.25;2.78;;;2.20;99.90;;;;;;5038455;28;25130;-68
2023/03/01 11:23:32;;;;;;;7.53;2.97;;;2.30;99.90;;;;;;5020135;28;25074;-69
2023/03/01 11:26:06;;;;;;;7.72;2.63;;;2.40;99.90;;;;;;5020163;28;25049;-70
2023/03/01 11:28:38;;;;;;;6.93;2.67;;;2.50;99.90;;;;;;5020156;28;25112;-68
2023/03/01 11:31:16;;;;;;;7.47;2.85;;;2.50;99.90;;;;;;5038072;28;25068;-68
2023/03/01 11:33:48;;;;;;;11.02;3.30;;;2.60;99.90;;;;;;5037800;28;25062;-68
2023/03/01 11:36:25;;;;;;;6.80;2.70;;;2.70;99.90;;;;;;5037480;28;25075;-69
2023/03/01 11:38:53;;;;;;;9.70;3.20;;;2.70;99.90;;;;;;5038094;28;25061;-69
2023/03/01 11:41:37;;;;;;;9.63;4.03;;;2.70;99.90;;;;;;5037433;28;25123;-68
2023/03/01 11:44:29;;;;;;;10.20;3.42;;;2.80;99.90;;;;;;5037610;28;25082;-68
2023/03/01 11:47:00;;;;;;;7.25;3.70;;;2.80;99.90;;;;;;5019808;28;25054;-68
2023/03/01 11:49:42;;;;;;;6.90;3.13;;;2.90;99.90;;;;;;5037513;28;25056;-68
2023/03/01 11:52:40;;;;;;;9.32;3.53;;;2.90;99.90;;;;;;5019859;28;25051;-69
2023/03/01 11:55:44;;;;;;;10.27;3.60;;;3.00;99.90;;;;;;5037515;28;25113;-69
2023/03/01 11:58:35;;;;;;;10.27;3.42;;;3.00;99.90;;;;;;5037553;28;25085;-68
2023/03/01 12:01:18;;;;;;;7.10;3.90;;;3.00;99.90;;;;;;5037097;28;25050;-69
2023/03/01 12:04:03;;;;;;;7.65;3.38;;;3.10;99.90;;;;;;5037401;28;25053;-69
2023/03/01 12:06:48;;;;;;;8.27;3.42;;;3.10;99.90;;;;;;5037008;28;25106;-68
2023/03/01 12:09:22;;;;;;;8.32;3.42;;;3.10;99.90;;;;;;5037483;28;25112;-68
2023/03/01 12:12:09;;;;;;;8.15;3.38;;;3.20;99.90;;;;;;5037038;28;25061;-67
2023/03/01 12:15:06;;;;;;;8.70;3.80;;;3.20;99.90;;;;;;5037423;28;25074;-69
2023/03/01 12:17:46;;;;;;;;;;;3.20;99.90;;;;;;5037155;28;25055;-69
2023/03/01 12:20:31;;;;;;;7.28;2.95;;;3.30;99.90;;;;;;5019502;28;25114;-68
2023/03/01 12:23:25;;;;;;;9.15;4.07;;;3.30;99.90;;;;;;5036244;28;25067;-69
2023/03/01 12:26:22;;;;;;;8.55;3.88;;;3.40;99.90;;;;;;5037492;28;25052;-68
2023/03/01 12:28:59;;;;;;;6.90;2.90;;;3.50;99.90;;;;;;5037231;28;25089;-68
2023/03/01 12:31:39;;;;;;;8.05;3.65;;;3.50;99.90;;;;;;5036482;28;25144;-68
2023/03/01 12:34:49;;;;;;;6.88;2.67;;;3.50;99.90;;;;;;5037129;28;25105;-68
2023/03/01 12:37:47;;;;;;;7.45;3.90;;;3.60;99.90;;;;;;5021635;28;25062;-68
2023/03/01 12:40:27;;;;;;;9.52;3.67;;;3.60;99.90;;;;;;5020777;28;25075;-69
2023/03/01 12:43:16;;;;;;;8.30;3.72;;;3.60;99.90;;;;;;5036831;28;25056;-69
2023/03/01 12:46:21;;;;;;;7.85;3.85;;;3.70;99.90;;;;;;5036614;28;25081;-69
2023/03/01 12:49:01;;;;;;;9.68;3.78;;;3.70;99.90;;;;;;5018805;28;25074;-69
2023/03/01 12:51:33;;;;;;;11.70;4.28;;;3.80;99.90;;;;;;5036793;28;25062;-69
2023/03/01 12:54:06;;;;;;;12.18;4.82;;;3.70;99.90;;;;;;5018974;28;25127;-69
2023/03/01 12:56:37;;;;;;;8.85;4.25;;;3.80;99.90;;;;;;5036563;28;25117;-69
2023/03/01 12:59:37;;;;;;;7.60;4.25;;;3.80;99.90;;;;;;5036222;28;25088;-69
2023/03/01 13:02:25;;;;;;;7.05;3.42;;;3.80;99.90;;;;;;5018884;28;25056;-69
2023/03/01 13:05:22;;;;;;;11.48;3.97;;;3.90;99.90;;;;;;5036124;28;25125;-70
2023/03/01 13:08:28;;;;;;;24.65;5.10;;;3.90;99.90;;;;;;5018703;28;25120;-70
2023/03/01 13:11:13;;;;;;;8.02;3.97;;;4.00;99.90;;;;;;5023991;28;25078;-73